Decoded METAR's for Mozambique

 
 
Print Page

Back to Weather Page

 
 

Beira - Mozambique, FQBR

ADDS - TAFS form results

Aviation Digital Data Service (ADDS)

Output produced by TAFs form (1204 UTC 21 September 2017)
found at http://aviationweather.gov/adds/tafs/
 
METAR text: FQBR 210800Z 19008KT 9999 SCT012 SCT017 BKN030 25/21 Q1022
Conditions at: FQBR (BEIRA , MZ) observed 0800 UTC 21 September 2017
Temperature: 25.0°C (77°F)
Dewpoint: 21.0°C (70°F) [RH = 79%]
Pressure (altimeter): 30.18 inches Hg (1022.0 mb)
Winds: from the S (190 degrees) at 9 MPH (8 knots; 4.2 m/s)
Visibility: 6 or more miles (10+ km)
Ceiling: 3000 feet AGL
Clouds: scattered clouds at 1200 feet AGL
scattered clouds at 1700 feet AGL
broken clouds at 3000 feet AGL
Weather: no significant weather observed at this time

Array
Chimoio - Mozambique, FQCH

ADDS - TAFS form results

Aviation Digital Data Service (ADDS)

Output produced by TAFs form (1204 UTC 21 September 2017)
found at http://aviationweather.gov/adds/tafs/
 
METAR text: FQCH 211200Z 13010KT 9999 BKN020 25/16 Q1024
Conditions at: FQCH (CHIMOIO , MZ) observed 1200 UTC 21 September 2017
Temperature: 25.0°C (77°F)
Dewpoint: 16.0°C (61°F) [RH = 57%]
Pressure (altimeter): 30.24 inches Hg (1024.0 mb)
Winds: from the SE (130 degrees) at 12 MPH (10 knots; 5.2 m/s)
Visibility: 6 or more miles (10+ km)
Ceiling: 2000 feet AGL
Clouds: broken clouds at 2000 feet AGL
Weather: no significant weather observed at this time

Array
Inhambane - Mozambique, FQIN

ADDS - TAFS form results

Aviation Digital Data Service (ADDS)

Output produced by TAFs form (1204 UTC 21 September 2017)
found at http://aviationweather.gov/adds/tafs/
 
METAR text: FQIN 211100Z 08007KT 9999 SCT020 27/15 Q1023
Conditions at: FQIN (INHAMBANE , MZ) observed 1100 UTC 21 September 2017
Temperature: 27.0°C (81°F)
Dewpoint: 15.0°C (59°F) [RH = 48%]
Pressure (altimeter): 30.21 inches Hg (1023.0 mb)
Winds: from the E (80 degrees) at 8 MPH (7 knots; 3.6 m/s)
Visibility: 6 or more miles (10+ km)
Ceiling: at least 12,000 feet AGL
Clouds: scattered clouds at 2000 feet AGL
Weather: no significant weather observed at this time

Array
Lichinga - Mozambique, FQLC

ADDS - TAFS form results

Aviation Digital Data Service (ADDS)

Output produced by TAFs form (1204 UTC 21 September 2017)
found at http://aviationweather.gov/adds/tafs/
 
METAR text: FQLC 211000Z 10011KT 9999 BKN020 26/08 Q1024
Conditions at: FQLC (LICHINGA , MZ) observed 1000 UTC 21 September 2017
Temperature: 26.0°C (79°F)
Dewpoint: 8.0°C (46°F) [RH = 32%]
Pressure (altimeter): 30.24 inches Hg (1024.0 mb)
Winds: from the E (100 degrees) at 13 MPH (11 knots; 5.7 m/s)
Visibility: 6 or more miles (10+ km)
Ceiling: 2000 feet AGL
Clouds: broken clouds at 2000 feet AGL
Weather: no significant weather observed at this time

Array
Maputo - Mozambique, FQMA

ADDS - TAFS form results

Aviation Digital Data Service (ADDS)

Output produced by TAFs form (1204 UTC 21 September 2017)
found at http://aviationweather.gov/adds/tafs/
 
METAR text: FQMA 211100Z 11010KT 9999 FEW020 28/19 Q1022 NOSIG
Conditions at: FQMA (MAPUTO/MAVALANE , MZ) observed 1100 UTC 21 September 2017
Temperature: 28.0°C (82°F)
Dewpoint: 19.0°C (66°F) [RH = 58%]
Pressure (altimeter): 30.18 inches Hg (1022.0 mb)
Winds: from the ESE (110 degrees) at 12 MPH (10 knots; 5.2 m/s)
Visibility: 6 or more miles (10+ km)
Ceiling: at least 12,000 feet AGL
Clouds: few clouds at 2000 feet AGL
Weather: no significant weather observed at this time

Array
Nampula - Mozambique, FQNP

ADDS - TAFS form results

Aviation Digital Data Service (ADDS)

Output produced by TAFs form (1204 UTC 21 September 2017)
found at http://aviationweather.gov/adds/tafs/
 
METAR text: FQNP 211200Z 20007KT 140V230 9999 BKN020 29/17 Q1017
Conditions at: FQNP (NAMPULA , MZ) observed 1200 UTC 21 September 2017
Temperature: 29.0°C (84°F)
Dewpoint: 17.0°C (63°F) [RH = 48%]
Pressure (altimeter): 30.03 inches Hg (1017.0 mb)
Winds: from the SSW (200 degrees) at 8 MPH (7 knots; 3.6 m/s)
Visibility: 6 or more miles (10+ km)
Ceiling: 2000 feet AGL
Clouds: broken clouds at 2000 feet AGL
Weather: no significant weather observed at this time

Array
Pemba - Mozambique, FQPB

ADDS - TAFS form results

Aviation Digital Data Service (ADDS)

Output produced by TAFs form (1204 UTC 21 September 2017)
found at http://aviationweather.gov/adds/tafs/
 
METAR text: FQPB 211100Z 15015KT 9999 FEW020 29/21 Q1017
Conditions at: FQPB (PEMBA , MZ) observed 1100 UTC 21 September 2017
Temperature: 29.0°C (84°F)
Dewpoint: 21.0°C (70°F) [RH = 62%]
Pressure (altimeter): 30.03 inches Hg (1017.0 mb)
Winds: from the SSE (150 degrees) at 17 MPH (15 knots; 7.8 m/s)
Visibility: 6 or more miles (10+ km)
Ceiling: at least 12,000 feet AGL
Clouds: few clouds at 2000 feet AGL
Weather: no significant weather observed at this time

Array
Quelimane - Mozambique, FQQL

ADDS - TAFS form results

Aviation Digital Data Service (ADDS)

Output produced by TAFs form (1204 UTC 21 September 2017)
found at http://aviationweather.gov/adds/tafs/
 
METAR text: FQQL 211200Z 16010KT 9999 SCT020 29/21 Q1018
Conditions at: FQQL (QUELIMANE , MZ) observed 1200 UTC 21 September 2017
Temperature: 29.0°C (84°F)
Dewpoint: 21.0°C (70°F) [RH = 62%]
Pressure (altimeter): 30.06 inches Hg (1018.0 mb)
Winds: from the SSE (160 degrees) at 12 MPH (10 knots; 5.2 m/s)
Visibility: 6 or more miles (10+ km)
Ceiling: at least 12,000 feet AGL
Clouds: scattered clouds at 2000 feet AGL
Weather: no significant weather observed at this time

Array
Tete - Mozambique, FQTT

ADDS - TAFS form results

Aviation Digital Data Service (ADDS)

Output produced by TAFs form (1204 UTC 21 September 2017)
found at http://aviationweather.gov/adds/tafs/
 
METAR text: FQTT 211100Z 10011KT 060V130 9999 SCT020 32/18 Q1019
Conditions at: FQTT (TETE/CHINGOZI , MZ) observed 1100 UTC 21 September 2017
Temperature: 32.0°C (90°F)
Dewpoint: 18.0°C (64°F) [RH = 43%]
Pressure (altimeter): 30.09 inches Hg (1019.0 mb)
Winds: from the E (100 degrees) at 13 MPH (11 knots; 5.7 m/s)
Visibility: 6 or more miles (10+ km)
Ceiling: at least 12,000 feet AGL
Clouds: scattered clouds at 2000 feet AGL
Weather: no significant weather observed at this time

Array
Vilanculos - Mozambique, FQVL

ADDS - TAFS form results

Aviation Digital Data Service (ADDS)

Output produced by TAFs form (1204 UTC 21 September 2017)
found at http://aviationweather.gov/adds/tafs/
 
METAR text: FQVL 211100Z 12011KT 080V150 9999 FEW020 28/20 Q1022
Conditions at: FQVL (VILANCULOS , MZ) observed 1100 UTC 21 September 2017
Temperature: 28.0°C (82°F)
Dewpoint: 20.0°C (68°F) [RH = 62%]
Pressure (altimeter): 30.18 inches Hg (1022.0 mb)
Winds: from the ESE (120 degrees) at 13 MPH (11 knots; 5.7 m/s)
Visibility: 6 or more miles (10+ km)
Ceiling: at least 12,000 feet AGL
Clouds: few clouds at 2000 feet AGL
Weather: no significant weather observed at this time

Array